Time,TemperatureF,DewpointF,PressureIn,WindDirection,WindDirectionDegrees,WindSpeedMPH,WindSpeedGustMPH,Humidity,HourlyPrecipIn,Conditions,Clouds,dailyrainin,SoftwareType,DateUTC
2013-05-22 00:00:00,46.6,28.9,30.22,NNE,12,0.0,0.0,50,0.00,CLR,,0.00,WeatherDisplay:10.37,2013-05-22 08:00:00,
2013-05-22 00:05:00,46.2,27.5,30.22,NNE,30,0.0,0.0,48,0.00,CLR,,0.00,WeatherDisplay:10.37,2013-05-22 08:05:00,
2013-05-22 00:10:00,45.9,29.7,30.21,NNE,26,0.0,0.0,53,0.00,CLR,,0.00,WeatherDisplay:10.37,2013-05-22 08:10:00,
2013-05-22 00:15:00,46.1,26.4,30.21,NNE,31,0.0,0.0,46,0.00,CLR,,0.00,WeatherDisplay:10.37,2013-05-22 08:15:00,
2013-05-22 00:25:00,45.7,27.1,30.21,NE,42,0.0,0.0,48,0.00,CLR,,0.00,WeatherDisplay:10.37,2013-05-22 08:25:00,
2013-05-22 00:30:00,45.5,26.4,30.21,NNE,21,0.0,0.0,47,0.00,CLR,,0.00,WeatherDisplay:10.37,2013-05-22 08:30:00,
2013-05-22 00:40:00,44.7,23.5,30.21,WSW,251,0.0,0.0,43,0.00,CLR,,0.00,WeatherDisplay:10.37,2013-05-22 08:40:00,
2013-05-22 00:45:00,43.9,24.9,30.21,West,266,0.0,0.0,47,0.00,CLR,,0.00,WeatherDisplay:10.37,2013-05-22 08:45:00,
2013-05-22 00:50:00,43.5,23.6,30.21,WNW,297,0.0,0.0,45,0.00,CLR,,0.00,WeatherDisplay:10.37,2013-05-22 08:50:00,
2013-05-22 00:55:00,43.5,26.1,30.21,WNW,283,0.0,0.0,50,0.00,CLR,,0.00,WeatherDisplay:10.37,2013-05-22 08:55:00,
2013-05-22 01:00:00,43.3,23.3,30.21,West,259,0.0,0.0,45,0.00,CLR,,0.00,WeatherDisplay:10.37,2013-05-22 09:00:00,
2013-05-22 01:15:00,42.7,22.3,30.21,WSW,257,0.0,0.0,44,0.00,CLR,,0.00,WeatherDisplay:10.37,2013-05-22 09:15:00,
2013-05-22 01:25:00,41.9,25.5,30.21,NNW,338,0.0,0.0,52,0.00,CLR,,0.00,WeatherDisplay:10.37,2013-05-22 09:25:00,
2013-05-22 01:30:00,41.9,24.1,30.21,NNE,25,0.0,0.0,49,0.00,CLR,,0.00,WeatherDisplay:10.37,2013-05-22 09:30:00,
2013-05-22 01:40:00,41.5,24.7,30.21,ENE,59,0.0,0.0,51,0.00,CLR,,0.00,WeatherDisplay:10.37,2013-05-22 09:40:00,
2013-05-22 01:45:00,41.1,23.9,30.21,NE,53,0.0,0.0,50,0.00,CLR,,0.00,WeatherDisplay:10.37,2013-05-22 09:45:00,
2013-05-22 01:55:00,40.8,24.1,30.21,SW,217,0.0,0.0,51,0.00,CLR,,0.00,WeatherDisplay:10.37,2013-05-22 09:55:00,
2013-05-22 02:05:00,40.5,23.7,30.21,West,272,0.0,0.0,51,0.00,CLR,,0.00,WeatherDisplay:10.37,2013-05-22 10:05:00,
2013-05-22 02:10:00,40.6,23.4,30.20,WNW,285,0.0,0.0,50,0.00,CLR,,0.00,WeatherDisplay:10.37,2013-05-22 10:10:00,
2013-05-22 02:15:00,40.5,23.7,30.20,NNE,22,0.0,0.0,51,0.00,CLR,,0.00,WeatherDisplay:10.37,2013-05-22 10:15:00,
2013-05-22 02:25:00,40.1,22.5,30.20,North,8,0.0,0.0,49,0.00,CLR,,0.00,WeatherDisplay:10.37,2013-05-22 10:25:00,
2013-05-22 02:30:00,39.9,24.2,30.20,North,6,0.0,0.0,53,0.00,CLR,,0.00,WeatherDisplay:10.37,2013-05-22 10:30:00,
2013-05-22 02:39:00,39.9,21.8,30.20,NW,308,0.0,0.0,48,0.00,CLR,,0.00,WeatherDisplay:10.37,2013-05-22 10:39:00,
2013-05-22 02:45:00,39.9,23.2,30.20,WSW,252,0.0,0.0,51,0.00,CLR,,0.00,WeatherDisplay:10.37,2013-05-22 10:45:00,
2013-05-22 02:50:00,39.7,23.1,30.20,WNW,282,0.0,0.0,51,0.00,CLR,,0.00,WeatherDisplay:10.37,2013-05-22 10:50:00,
2013-05-22 02:55:00,39.9,23.2,30.19,NW,319,0.0,0.0,51,0.00,CLR,,0.00,WeatherDisplay:10.37,2013-05-22 10:55:00,
2013-05-22 03:00:00,40.3,27.1,30.19,NNE,15,0.0,0.0,59,0.00,CLR,,0.00,WeatherDisplay:10.37,2013-05-22 11:00:00,
2013-05-22 03:05:00,40.6,25.3,30.19,NNE,29,0.0,0.0,54,0.00,CLR,,0.00,WeatherDisplay:10.37,2013-05-22 11:05:00,
2013-05-22 03:10:00,41.3,25.0,30.19,NE,34,0.0,0.0,52,0.00,CLR,,0.00,WeatherDisplay:10.37,2013-05-22 11:10:00,
2013-05-22 03:15:00,41.7,24.9,30.19,NE,42,0.0,0.0,51,0.00,CLR,,0.00,WeatherDisplay:10.37,2013-05-22 11:15:00,
2013-05-22 03:25:00,41.3,24.1,30.19,NNE,27,0.0,0.0,50,0.00,CLR,,0.00,WeatherDisplay:10.37,2013-05-22 11:25:00,
2013-05-22 03:30:00,41.2,24.4,30.19,NNW,346,0.0,0.0,51,0.00,CLR,,0.00,WeatherDisplay:10.37,2013-05-22 11:30:00,
2013-05-22 03:35:00,41.2,24.9,30.19,NNW,328,0.0,0.0,52,0.00,CLR,,0.00,WeatherDisplay:10.37,2013-05-22 11:35:00,
2013-05-22 03:40:00,40.8,26.3,30.19,North,350,0.0,0.0,56,0.00,CLR,,0.00,WeatherDisplay:10.37,2013-05-22 11:40:00,
2013-05-22 03:45:00,40.4,26.0,30.19,NNE,24,0.0,0.0,56,0.00,CLR,,0.00,WeatherDisplay:10.37,2013-05-22 11:45:00,
2013-05-22 03:54:00,39.4,25.0,30.19,NW,319,0.0,0.0,56,0.00,CLR,,0.00,WeatherDisplay:10.37,2013-05-22 11:54:00,
2013-05-22 04:00:00,39.4,24.1,30.19,North,7,0.0,0.0,54,0.00,CLR,,0.00,WeatherDisplay:10.37,2013-05-22 12:00:00,
2013-05-22 04:10:00,38.8,23.6,30.20,SW,219,0.0,0.0,54,0.00,CLR,,0.00,WeatherDisplay:10.37,2013-05-22 12:10:00,
2013-05-22 04:15:00,38.8,22.7,30.20,West,264,0.0,0.0,52,0.00,CLR,,0.00,WeatherDisplay:10.37,2013-05-22 12:15:00,
2013-05-22 04:20:00,38.7,24.8,30.19,NW,318,0.0,0.0,57,0.00,CLR,,0.00,WeatherDisplay:10.37,2013-05-22 12:20:00,
2013-05-22 04:25:00,39.0,24.2,30.20,NNW,339,0.0,0.0,55,0.00,CLR,,0.00,WeatherDisplay:10.37,2013-05-22 12:25:00,
2013-05-22 04:30:00,39.4,25.0,30.20,North,356,0.0,0.0,56,0.00,CLR,,0.00,WeatherDisplay:10.37,2013-05-22 12:30:00,
2013-05-22 04:40:00,39.4,25.0,30.20,ENE,77,0.0,0.0,56,0.00,CLR,,0.00,WeatherDisplay:10.37,2013-05-22 12:40:00,
2013-05-22 04:45:00,39.7,26.2,30.20,NE,46,0.0,0.0,58,0.00,CLR,,0.00,WeatherDisplay:10.37,2013-05-22 12:45:00,
2013-05-22 04:50:00,40.1,26.5,30.19,NE,41,0.0,0.0,58,0.00,CLR,,0.00,WeatherDisplay:10.37,2013-05-22 12:50:00,
2013-05-22 04:55:00,40.3,27.1,30.19,NE,42,0.0,0.0,59,0.00,CLR,,0.00,WeatherDisplay:10.37,2013-05-22 12:55:00,
2013-05-22 05:00:00,40.6,27.0,30.19,NE,35,0.0,0.0,58,0.00,CLR,,0.00,WeatherDisplay:10.37,2013-05-22 13:00:00,
2013-05-22 05:05:00,40.8,27.2,30.19,NNE,31,0.0,0.0,58,0.00,CLR,,0.00,WeatherDisplay:10.37,2013-05-22 13:05:00,
2013-05-22 05:10:00,41.0,29.4,30.19,NNE,23,0.0,0.0,63,0.00,CLR,,0.00,WeatherDisplay:10.37,2013-05-22 13:10:00,
2013-05-22 05:15:00,41.0,27.3,30.19,North,8,0.0,0.0,58,0.00,CLR,,0.00,WeatherDisplay:10.37,2013-05-22 13:15:00,
2013-05-22 05:20:00,40.8,27.6,30.19,NNE,33,0.0,0.0,59,0.00,CLR,,0.00,WeatherDisplay:10.37,2013-05-22 13:20:00,
2013-05-22 05:25:00,41.2,30.3,30.19,NE,49,0.0,0.0,65,0.00,CLR,,0.00,WeatherDisplay:10.37,2013-05-22 13:25:00,
2013-05-22 05:30:00,41.5,28.3,30.19,NE,46,0.0,0.0,59,0.00,CLR,,0.00,WeatherDisplay:10.37,2013-05-22 13:30:00,
2013-05-22 05:40:00,43.3,27.7,30.19,NE,45,0.0,0.0,54,0.00,CLR,,0.00,WeatherDisplay:10.37,2013-05-22 13:40:00,
2013-05-22 05:45:00,44.4,28.3,30.19,NE,45,0.0,0.0,53,0.00,CLR,,0.00,WeatherDisplay:10.37,2013-05-22 13:45:00,
2013-05-22 05:55:00,45.1,28.5,30.19,NE,43,0.0,0.0,52,0.00,CLR,,0.00,WeatherDisplay:10.37,2013-05-22 13:55:00,
2013-05-22 06:00:00,45.7,27.6,30.19,NE,41,0.0,0.0,49,0.00,CLR,,0.00,WeatherDisplay:10.37,2013-05-22 14:00:00,
2013-05-22 06:09:00,46.1,28.5,30.19,NE,48,0.0,0.0,50,0.00,CLR,,0.00,WeatherDisplay:10.37,2013-05-22 14:09:00,
2013-05-22 06:15:00,46.5,28.8,30.19,NE,53,0.0,0.0,50,0.00,CLR,,0.00,WeatherDisplay:10.37,2013-05-22 14:15:00,
2013-05-22 06:25:00,46.9,30.7,30.18,NE,45,0.0,0.0,53,0.00,CLR,,0.00,WeatherDisplay:10.37,2013-05-22 14:25:00,
2013-05-22 06:30:00,47.7,28.9,30.18,NE,54,0.0,0.0,48,0.00,CLR,,0.00,WeatherDisplay:10.37,2013-05-22 14:30:00,
2013-05-22 06:35:00,48.9,30.5,30.18,NE,56,0.0,0.0,49,0.00,CLR,,0.00,WeatherDisplay:10.37,2013-05-22 14:35:00,
2013-05-22 06:40:00,49.7,37.6,30.18,ENE,61,0.0,0.0,63,0.00,CLR,,0.00,WeatherDisplay:10.37,2013-05-22 14:40:00,
2013-05-22 06:45:00,50.0,37.1,30.18,NE,53,0.0,0.0,61,0.00,CLR,,0.00,WeatherDisplay:10.37,2013-05-22 14:45:00,
2013-05-22 06:55:00,48.9,28.5,30.18,ENE,58,0.0,0.0,45,0.00,CLR,,0.00,WeatherDisplay:10.37,2013-05-22 14:55:00,
2013-05-22 07:00:00,48.9,29.6,30.17,NE,53,0.0,0.0,47,0.00,CLR,,0.00,WeatherDisplay:10.37,2013-05-22 15:00:00,
2013-05-22 07:10:00,48.9,31.1,30.17,NE,46,0.0,0.0,50,0.00,CLR,,0.00,WeatherDisplay:10.37,2013-05-22 15:10:00,
2013-05-22 07:15:00,48.9,27.4,30.17,NE,52,0.0,0.0,43,0.00,CLR,,0.00,WeatherDisplay:10.37,2013-05-22 15:15:00,
2013-05-22 07:25:00,50.3,28.6,30.17,ENE,61,0.0,0.0,43,0.00,CLR,,0.00,WeatherDisplay:10.37,2013-05-22 15:25:00,
2013-05-22 07:30:00,51.3,28.4,30.17,ENE,59,0.0,0.0,41,0.00,CLR,,0.00,WeatherDisplay:10.37,2013-05-22 15:30:00,
2013-05-22 07:35:00,52.0,29.6,30.17,ENE,61,0.0,0.0,42,0.00,CLR,,0.00,WeatherDisplay:10.37,2013-05-22 15:35:00,
2013-05-22 07:40:00,52.0,30.2,30.17,ENE,59,0.0,0.0,43,0.00,CLR,,0.00,WeatherDisplay:10.37,2013-05-22 15:40:00,
2013-05-22 07:45:00,52.3,34.7,30.17,East,79,0.0,0.0,51,0.00,CLR,,0.00,WeatherDisplay:10.37,2013-05-22 15:45:00,
2013-05-22 07:55:00,54.3,27.8,30.17,East,88,0.0,0.0,36,0.00,CLR,,0.00,WeatherDisplay:10.37,2013-05-22 15:55:00,
2013-05-22 08:00:00,55.4,29.6,30.17,ESE,103,0.0,0.0,37,0.00,CLR,,0.00,WeatherDisplay:10.37,2013-05-22 16:00:00,
2013-05-22 08:09:00,57.4,31.3,30.17,ESE,121,0.0,0.0,37,0.00,CLR,,0.00,WeatherDisplay:10.37,2013-05-22 16:09:00,
2013-05-22 08:15:00,57.9,31.1,30.17,SE,125,0.0,0.0,36,0.00,CLR,,0.00,WeatherDisplay:10.37,2013-05-22 16:15:00,
2013-05-22 08:25:00,58.7,32.4,30.17,SSE,150,0.0,0.0,37,0.00,CLR,,0.00,WeatherDisplay:10.37,2013-05-22 16:25:00,
2013-05-22 08:30:00,59.2,33.6,30.17,SW,223,0.0,0.0,38,0.00,CLR,,0.00,WeatherDisplay:10.37,2013-05-22 16:30:00,
2013-05-22 08:35:00,59.4,35.0,30.17,WSW,239,0.0,0.0,40,0.00,CLR,,0.00,WeatherDisplay:10.37,2013-05-22 16:35:00,
2013-05-22 08:40:00,59.0,34.7,30.17,WSW,242,0.0,0.0,40,0.00,CLR,,0.00,WeatherDisplay:10.37,2013-05-22 16:40:00,
2013-05-22 08:45:00,58.8,33.2,30.17,SW,223,0.0,0.0,38,0.00,CLR,,0.00,WeatherDisplay:10.37,2013-05-22 16:45:00,
2013-05-22 08:54:00,59.8,33.4,30.17,WSW,243,0.0,0.0,37,0.00,CLR,,0.00,WeatherDisplay:10.37,2013-05-22 16:54:00,
2013-05-22 09:00:00,59.9,36.7,30.17,SW,228,0.0,0.0,42,0.00,CLR,,0.00,WeatherDisplay:10.37,2013-05-22 17:00:00,
2013-05-22 09:10:00,60.8,32.9,30.16,SW,230,0.0,0.0,35,0.00,CLR,,0.00,WeatherDisplay:10.37,2013-05-22 17:10:00,
2013-05-22 09:15:00,61.3,30.4,30.16,ESE,109,0.0,0.0,31,0.00,CLR,,0.00,WeatherDisplay:10.37,2013-05-22 17:15:00,
2013-05-22 09:24:00,62.2,34.2,30.16,SW,232,0.0,0.0,35,0.00,CLR,,0.00,WeatherDisplay:10.37,2013-05-22 17:24:00,
2013-05-22 09:30:00,62.3,34.3,30.16,SW,224,0.0,0.0,35,0.00,CLR,,0.00,WeatherDisplay:10.37,2013-05-22 17:30:00,
2013-05-22 09:40:00,62.8,34.7,30.15,WSW,239,0.0,0.0,35,0.00,CLR,,0.00,WeatherDisplay:10.37,2013-05-22 17:40:00,
2013-05-22 09:45:00,62.4,34.4,30.15,WSW,245,0.0,0.0,35,0.00,CLR,,0.00,WeatherDisplay:10.37,2013-05-22 17:45:00,
2013-05-22 09:50:00,63.2,34.4,30.15,SW,224,0.0,0.0,34,0.00,CLR,,0.00,WeatherDisplay:10.37,2013-05-22 17:50:00,
2013-05-22 09:55:00,63.1,33.5,30.15,SSW,205,0.0,0.0,33,0.00,CLR,,0.00,WeatherDisplay:10.37,2013-05-22 17:55:00,
2013-05-22 10:00:00,63.1,32.8,30.15,SW,228,0.0,0.0,32,0.00,CLR,,0.00,WeatherDisplay:10.37,2013-05-22 18:00:00,
2013-05-22 10:10:00,64.6,34.8,30.15,WSW,238,0.0,0.0,33,0.00,CLR,,0.00,WeatherDisplay:10.37,2013-05-22 18:10:00,
2013-05-22 10:15:00,64.9,35.1,30.15,SSW,206,0.0,0.0,33,0.00,CLR,,0.00,WeatherDisplay:10.37,2013-05-22 18:15:00,
2013-05-22 10:25:00,64.9,35.1,30.15,SSW,196,0.0,0.0,33,0.00,CLR,,0.00,WeatherDisplay:10.37,2013-05-22 18:25:00,
2013-05-22 10:30:00,64.9,34.3,30.15,SSW,194,0.0,0.0,32,0.00,CLR,,0.00,WeatherDisplay:10.37,2013-05-22 18:30:00,
2013-05-22 10:40:00,64.4,34.6,30.14,SSW,192,0.0,0.0,33,0.00,CLR,,0.00,WeatherDisplay:10.37,2013-05-22 18:40:00,
2013-05-22 10:45:00,64.6,32.4,30.14,South,188,0.0,0.0,30,0.00,CLR,,0.00,WeatherDisplay:10.37,2013-05-22 18:45:00,
2013-05-22 10:50:00,65.1,34.5,30.14,SW,218,0.0,0.0,32,0.00,CLR,,0.00,WeatherDisplay:10.37,2013-05-22 18:50:00,
2013-05-22 10:55:00,65.2,32.1,30.14,SSE,153,0.0,0.0,29,0.00,CLR,,0.00,WeatherDisplay:10.37,2013-05-22 18:55:00,
2013-05-22 11:00:00,65.3,31.3,30.14,East,88,0.0,0.0,28,0.00,CLR,,0.00,WeatherDisplay:10.37,2013-05-22 19:00:00,
2013-05-22 11:05:00,64.9,30.1,30.14,ESE,121,0.0,0.0,27,0.00,CLR,,0.00,WeatherDisplay:10.37,2013-05-22 19:05:00,
2013-05-22 11:10:00,64.9,31.9,30.14,SSE,151,0.0,0.0,29,0.00,CLR,,0.00,WeatherDisplay:10.37,2013-05-22 19:10:00,
2013-05-22 11:15:00,65.8,30.8,30.13,SSE,151,0.0,0.0,27,0.00,CLR,,0.00,WeatherDisplay:10.37,2013-05-22 19:15:00,
2013-05-22 11:25:00,66.7,34.3,30.13,South,184,0.0,0.0,30,0.00,CLR,,0.00,WeatherDisplay:10.37,2013-05-22 19:25:00,
2013-05-22 11:30:00,66.7,32.6,30.13,SE,125,0.0,0.0,28,0.00,CLR,,0.00,WeatherDisplay:10.37,2013-05-22 19:30:00,
2013-05-22 11:35:00,66.0,31.9,30.13,ESE,116,0.0,0.0,28,0.00,CLR,,0.00,WeatherDisplay:10.37,2013-05-22 19:35:00,
2013-05-22 11:40:00,65.6,29.8,30.13,ESE,110,0.0,0.0,26,0.00,CLR,,0.00,WeatherDisplay:10.37,2013-05-22 19:40:00,
2013-05-22 11:45:00,65.7,30.7,30.13,ESE,104,0.0,0.0,27,0.00,CLR,,0.00,WeatherDisplay:10.37,2013-05-22 19:45:00,
2013-05-22 11:50:00,65.8,31.8,30.12,SSE,157,0.0,0.0,28,0.00,CLR,,0.00,WeatherDisplay:10.37,2013-05-22 19:50:00,
2013-05-22 12:00:00,66.3,33.1,30.12,ESE,109,0.0,0.0,29,0.00,CLR,,0.00,WeatherDisplay:10.37,2013-05-22 20:00:00,
2013-05-22 12:10:00,67.6,32.4,30.12,SSE,152,0.0,0.0,27,0.00,CLR,,0.00,WeatherDisplay:10.37,2013-05-22 20:10:00,
2013-05-22 12:15:00,67.5,32.3,30.11,SE,130,0.0,0.0,27,0.00,CLR,,0.00,WeatherDisplay:10.37,2013-05-22 20:15:00,
2013-05-22 12:24:00,66.9,32.7,30.11,ESE,104,0.0,0.0,28,0.00,CLR,,0.00,WeatherDisplay:10.37,2013-05-22 20:24:00,
2013-05-22 12:30:00,67.6,33.3,30.11,South,190,0.0,0.0,28,0.00,CLR,,0.00,WeatherDisplay:10.37,2013-05-22 20:30:00,
2013-05-22 12:40:00,68.1,32.9,30.11,ESE,121,0.0,0.0,27,0.00,CLR,,0.00,WeatherDisplay:10.37,2013-05-22 20:40:00,
2013-05-22 12:45:00,68.8,33.4,30.11,SSE,162,0.0,0.0,27,0.00,CLR,,0.00,WeatherDisplay:10.37,2013-05-22 20:45:00,
2013-05-22 12:50:00,68.8,34.4,30.11,SW,226,0.0,0.0,28,0.00,CLR,,0.00,WeatherDisplay:10.37,2013-05-22 20:50:00,
2013-05-22 12:55:00,68.7,32.4,30.10,SSW,200,0.0,0.0,26,0.00,CLR,,0.00,WeatherDisplay:10.37,2013-05-22 20:55:00,
2013-05-22 13:00:00,68.5,34.1,30.10,South,187,0.0,0.0,28,0.00,CLR,,0.00,WeatherDisplay:10.37,2013-05-22 21:00:00,
2013-05-22 13:05:00,68.2,33.8,30.10,SW,230,0.0,0.0,28,0.00,CLR,,0.00,WeatherDisplay:10.37,2013-05-22 21:05:00,
2013-05-22 13:10:00,68.0,32.7,30.10,WSW,251,0.0,0.0,27,0.00,CLR,,0.00,WeatherDisplay:10.37,2013-05-22 21:10:00,
2013-05-22 13:15:00,67.8,33.5,30.10,WSW,244,0.0,0.0,28,0.00,CLR,,0.00,WeatherDisplay:10.37,2013-05-22 21:15:00,
2013-05-22 13:24:00,68.5,32.3,30.09,South,172,0.0,0.0,26,0.00,CLR,,0.00,WeatherDisplay:10.37,2013-05-22 21:24:00,
2013-05-22 13:30:00,68.7,33.4,30.09,South,185,0.0,0.0,27,0.00,CLR,,0.00,WeatherDisplay:10.37,2013-05-22 21:30:00,
2013-05-22 13:40:00,69.1,35.5,30.09,West,267,0.0,0.0,29,0.00,CLR,,0.00,WeatherDisplay:10.37,2013-05-22 21:40:00,
2013-05-22 13:45:00,69.4,35.8,30.09,West,266,0.0,0.0,29,0.00,CLR,,0.00,WeatherDisplay:10.37,2013-05-22 21:45:00,
2013-05-22 13:55:00,69.5,32.1,30.09,SE,135,0.0,0.0,25,0.00,CLR,,0.00,WeatherDisplay:10.37,2013-05-22 21:55:00,
2013-05-22 14:00:00,69.9,33.4,30.09,SE,139,0.0,0.0,26,0.00,CLR,,0.00,WeatherDisplay:10.37,2013-05-22 22:00:00,
2013-05-22 14:05:00,69.8,31.3,30.08,SSE,154,0.0,0.0,24,0.00,CLR,,0.00,WeatherDisplay:10.37,2013-05-22 22:05:00,
2013-05-22 14:10:00,69.7,36.0,30.08,WSW,257,0.0,0.0,29,0.00,CLR,,0.00,WeatherDisplay:10.37,2013-05-22 22:10:00,
2013-05-22 14:15:00,69.9,37.9,30.08,WSW,245,0.0,0.0,31,0.00,CLR,,0.00,WeatherDisplay:10.37,2013-05-22 22:15:00,
2013-05-22 14:25:00,70.8,35.2,30.08,South,188,0.0,0.0,27,0.00,CLR,,0.00,WeatherDisplay:10.37,2013-05-22 22:25:00,
2013-05-22 14:30:00,71.4,35.7,30.08,SSW,201,0.0,0.0,27,0.00,CLR,,0.00,WeatherDisplay:10.37,2013-05-22 22:30:00,
2013-05-22 14:35:00,70.9,35.2,30.08,WSW,247,0.0,0.0,27,0.00,CLR,,0.00,WeatherDisplay:10.37,2013-05-22 22:35:00,
2013-05-22 14:40:00,71.1,35.4,30.08,SW,230,0.0,0.0,27,0.00,CLR,,0.00,WeatherDisplay:10.37,2013-05-22 22:40:00,
2013-05-22 14:45:00,71.8,36.9,30.08,South,187,0.0,0.0,28,0.00,CLR,,0.00,WeatherDisplay:10.37,2013-05-22 22:45:00,
2013-05-22 14:55:00,72.0,37.1,30.08,SSW,203,0.0,0.0,28,0.00,CLR,,0.00,WeatherDisplay:10.37,2013-05-22 22:55:00,
2013-05-22 15:00:00,71.4,36.6,30.08,WNW,284,0.0,0.0,28,0.00,CLR,,0.00,WeatherDisplay:10.37,2013-05-22 23:00:00,
2013-05-22 15:20:00,72.1,36.3,30.06,SSE,157,0.0,0.0,27,0.00,CLR,,0.00,WeatherDisplay:10.37,2013-05-22 23:20:00,
2013-05-22 15:25:00,71.8,36.9,30.07,South,179,0.0,0.0,28,0.00,CLR,,0.00,WeatherDisplay:10.37,2013-05-22 23:25:00,
2013-05-22 15:30:00,71.8,35.1,30.06,WSW,249,0.0,0.0,26,0.00,CLR,,0.00,WeatherDisplay:10.37,2013-05-22 23:30:00,
2013-05-22 15:40:00,73.2,36.2,30.07,SW,222,0.0,0.0,26,0.00,CLR,,0.00,WeatherDisplay:10.37,2013-05-22 23:40:00,
2013-05-22 15:45:00,73.3,35.3,30.07,SSE,153,0.0,0.0,25,0.00,CLR,,0.00,WeatherDisplay:10.37,2013-05-22 23:45:00,
2013-05-22 15:55:00,73.2,37.2,30.06,SE,135,0.0,0.0,27,0.00,CLR,,0.00,WeatherDisplay:10.37,2013-05-22 23:55:00,
2013-05-22 16:00:00,73.4,35.4,30.06,SE,142,0.0,0.0,25,0.00,CLR,,0.00,WeatherDisplay:10.37,2013-05-23 00:00:00,
2013-05-22 16:10:00,72.4,35.5,30.06,SE,124,0.0,0.0,26,0.00,CLR,,0.00,WeatherDisplay:10.37,2013-05-23 00:10:00,
2013-05-22 16:15:00,72.4,34.6,30.06,East,99,0.0,0.0,25,0.00,CLR,,0.00,WeatherDisplay:10.37,2013-05-23 00:15:00,
2013-05-22 16:25:00,72.1,36.3,30.06,East,92,0.0,0.0,27,0.00,CLR,,0.00,WeatherDisplay:10.37,2013-05-23 00:25:00,
2013-05-22 16:30:00,72.6,35.7,30.06,East,85,0.0,0.0,26,0.00,CLR,,0.00,WeatherDisplay:10.37,2013-05-23 00:30:00,
2013-05-22 16:40:00,73.0,36.1,30.06,SE,134,0.0,0.0,26,0.00,CLR,,0.00,WeatherDisplay:10.37,2013-05-23 00:40:00,
2013-05-22 16:45:00,73.2,36.2,30.06,SE,131,0.0,0.0,26,0.00,CLR,,0.00,WeatherDisplay:10.37,2013-05-23 00:45:00,
2013-05-22 16:50:00,73.6,37.5,30.06,SE,141,0.0,0.0,27,0.00,CLR,,0.00,WeatherDisplay:10.37,2013-05-23 00:50:00,
2013-05-22 17:00:00,73.7,39.5,30.06,SE,125,0.0,0.0,29,0.00,CLR,,0.00,WeatherDisplay:10.37,2013-05-23 01:00:00,
2013-05-22 17:10:00,72.0,35.2,30.06,SSE,149,0.0,0.0,26,0.00,CLR,,0.00,WeatherDisplay:10.37,2013-05-23 01:10:00,
2013-05-22 17:15:00,72.8,34.9,30.05,SE,137,0.0,0.0,25,0.00,CLR,,0.00,WeatherDisplay:10.37,2013-05-23 01:15:00,
2013-05-22 17:25:00,71.8,36.0,30.06,SSE,166,0.0,0.0,27,0.00,CLR,,0.00,WeatherDisplay:10.37,2013-05-23 01:25:00,
2013-05-22 17:30:00,72.1,35.3,30.06,SSW,200,0.0,0.0,26,0.00,CLR,,0.00,WeatherDisplay:10.37,2013-05-23 01:30:00,
2013-05-22 17:35:00,72.9,36.0,30.05,South,184,0.0,0.0,26,0.00,CLR,,0.00,WeatherDisplay:10.37,2013-05-23 01:35:00,
2013-05-22 17:40:00,73.6,36.6,30.05,SSW,212,1.0,0.0,26,0.00,CLR,,0.00,WeatherDisplay:10.37,2013-05-23 01:40:00,
2013-05-22 17:45:00,72.8,35.9,30.05,SW,217,0.0,0.0,26,0.00,CLR,,0.00,WeatherDisplay:10.37,2013-05-23 01:45:00,
2013-05-22 17:55:00,73.2,35.2,30.05,SSW,200,0.0,0.0,25,0.00,CLR,,0.00,WeatherDisplay:10.37,2013-05-23 01:55:00,
2013-05-22 18:00:00,73.9,36.9,30.05,SSW,204,0.0,0.0,26,0.00,CLR,,0.00,WeatherDisplay:10.37,2013-05-23 02:00:00,
2013-05-22 18:10:00,73.6,36.6,30.05,SW,214,0.0,0.0,26,0.00,CLR,,0.00,WeatherDisplay:10.37,2013-05-23 02:10:00,
2013-05-22 18:20:00,73.9,33.8,30.05,SSW,207,0.0,0.0,23,0.00,CLR,,0.00,WeatherDisplay:10.37,2013-05-23 02:20:00,
2013-05-22 18:25:00,74.0,34.9,30.05,South,178,0.0,0.0,24,0.00,CLR,,0.00,WeatherDisplay:10.37,2013-05-23 02:25:00,
2013-05-22 18:30:00,74.0,36.0,30.05,SSW,200,0.0,0.0,25,0.00,CLR,,0.00,WeatherDisplay:10.37,2013-05-23 02:30:00,
2013-05-22 18:35:00,73.7,34.6,30.05,South,189,0.0,0.0,24,0.00,CLR,,0.00,WeatherDisplay:10.37,2013-05-23 02:35:00,
2013-05-22 18:45:00,72.9,33.9,30.05,SSE,153,0.0,0.0,24,0.00,CLR,,0.00,WeatherDisplay:10.37,2013-05-23 02:45:00,
2013-05-22 18:55:00,70.2,35.6,30.05,WSW,241,0.0,0.0,28,0.00,CLR,,0.00,WeatherDisplay:10.37,2013-05-23 02:55:00,
2013-05-22 19:00:00,68.5,35.0,30.05,WSW,242,1.0,0.0,29,0.00,CLR,,0.00,WeatherDisplay:10.37,2013-05-23 03:00:00,
2013-05-22 19:10:00,65.1,32.9,30.06,WSW,245,0.0,0.0,30,0.00,CLR,,0.00,WeatherDisplay:10.37,2013-05-23 03:10:00,
2013-05-22 19:15:00,64.9,32.7,30.06,WSW,245,0.0,0.0,30,0.00,CLR,,0.00,WeatherDisplay:10.37,2013-05-23 03:15:00,
2013-05-22 19:25:00,64.0,32.8,30.06,WSW,238,1.0,0.0,31,0.00,CLR,,0.00,WeatherDisplay:10.37,2013-05-23 03:25:00,
2013-05-22 19:30:00,64.4,33.1,30.06,WSW,246,0.0,0.0,31,0.00,CLR,,0.00,WeatherDisplay:10.37,2013-05-23 03:30:00,
2013-05-22 19:40:00,64.2,32.1,30.06,West,259,0.0,0.0,30,0.00,CLR,,0.00,WeatherDisplay:10.37,2013-05-23 03:40:00,
2013-05-22 19:45:00,63.9,33.5,30.06,WSW,248,1.0,0.0,32,0.00,CLR,,0.00,WeatherDisplay:10.37,2013-05-23 03:45:00,
2013-05-22 19:50:00,63.3,32.9,30.06,WSW,240,3.0,0.0,32,0.00,CLR,,0.00,WeatherDisplay:10.37,2013-05-23 03:50:00,
2013-05-22 19:55:00,62.8,32.5,30.06,WSW,239,0.0,0.0,32,0.00,CLR,,0.00,WeatherDisplay:10.37,2013-05-23 03:55:00,
2013-05-22 20:00:00,62.8,34.7,30.06,WSW,243,0.0,0.0,35,0.00,CLR,,0.00,WeatherDisplay:10.37,2013-05-23 04:00:00,
2013-05-22 20:05:00,63.0,32.6,30.06,WSW,256,0.0,0.0,32,0.00,CLR,,0.00,WeatherDisplay:10.37,2013-05-23 04:05:00,
2013-05-22 20:10:00,62.2,32.8,30.06,WSW,254,0.0,0.0,33,0.00,CLR,,0.00,WeatherDisplay:10.37,2013-05-23 04:10:00,
2013-05-22 20:15:00,61.6,31.4,30.06,WSW,247,0.0,0.0,32,0.00,CLR,,0.00,WeatherDisplay:10.37,2013-05-23 04:15:00,
2013-05-22 20:25:00,61.0,31.6,30.06,WSW,250,0.0,0.0,33,0.00,CLR,,0.00,WeatherDisplay:10.37,2013-05-23 04:25:00,
2013-05-22 20:30:00,60.6,31.3,30.06,WSW,249,0.0,0.0,33,0.00,CLR,,0.00,WeatherDisplay:10.37,2013-05-23 04:30:00,
2013-05-22 20:35:00,60.7,31.4,30.06,WSW,249,0.0,0.0,33,0.00,CLR,,0.00,WeatherDisplay:10.37,2013-05-23 04:35:00,
2013-05-22 20:40:00,60.4,31.9,30.06,WSW,253,1.0,0.0,34,0.00,CLR,,0.00,WeatherDisplay:10.37,2013-05-23 04:40:00,
2013-05-22 20:45:00,59.9,31.5,30.06,WSW,253,0.0,0.0,34,0.00,CLR,,0.00,WeatherDisplay:10.37,2013-05-23 04:45:00,
2013-05-22 20:55:00,58.6,30.3,30.06,WSW,253,0.0,0.0,34,0.00,CLR,,0.00,WeatherDisplay:10.37,2013-05-23 04:55:00,
2013-05-22 21:00:00,58.6,31.0,30.06,WSW,254,0.0,0.0,35,0.00,CLR,,0.00,WeatherDisplay:10.37,2013-05-23 05:00:00,
2013-05-22 21:10:00,58.6,31.7,30.06,WSW,252,0.0,0.0,36,0.00,CLR,,0.00,WeatherDisplay:10.37,2013-05-23 05:10:00,
2013-05-22 21:15:00,58.3,32.1,30.06,WSW,253,0.0,0.0,37,0.00,CLR,,0.00,WeatherDisplay:10.37,2013-05-23 05:15:00,
2013-05-22 21:20:00,57.4,31.3,30.06,WSW,248,0.0,0.0,37,0.00,CLR,,0.00,WeatherDisplay:10.37,2013-05-23 05:20:00,
2013-05-22 21:25:00,56.8,30.8,30.06,WSW,246,0.0,0.0,37,0.00,CLR,,0.00,WeatherDisplay:10.37,2013-05-23 05:25:00,
2013-05-22 21:30:00,56.1,30.2,30.07,WSW,245,0.0,0.0,37,0.00,CLR,,0.00,WeatherDisplay:10.37,2013-05-23 05:30:00,
2013-05-22 21:40:00,55.3,30.8,30.07,WSW,255,0.0,0.0,39,0.00,CLR,,0.00,WeatherDisplay:10.37,2013-05-23 05:40:00,
2013-05-22 21:45:00,55.0,30.5,30.07,West,259,0.0,0.0,39,0.00,CLR,,0.00,WeatherDisplay:10.37,2013-05-23 05:45:00,
2013-05-22 21:50:00,54.7,33.7,30.07,West,260,0.0,0.0,45,0.00,CLR,,0.00,WeatherDisplay:10.37,2013-05-23 05:50:00,
2013-05-22 21:55:00,54.3,29.9,30.07,WSW,254,0.0,0.0,39,0.00,CLR,,0.00,WeatherDisplay:10.37,2013-05-23 05:55:00,
2013-05-22 22:00:00,53.7,30.0,30.07,WSW,254,0.0,0.0,40,0.00,CLR,,0.00,WeatherDisplay:10.37,2013-05-23 06:00:00,
2013-05-22 22:05:00,53.2,28.9,30.07,WSW,254,0.0,0.0,39,0.00,CLR,,0.00,WeatherDisplay:10.37,2013-05-23 06:05:00,
2013-05-22 22:10:00,52.7,29.0,30.07,WSW,257,0.0,0.0,40,0.00,CLR,,0.00,WeatherDisplay:10.37,2013-05-23 06:10:00,
2013-05-22 22:15:00,52.3,29.3,30.07,West,259,0.0,0.0,41,0.00,CLR,,0.00,WeatherDisplay:10.37,2013-05-23 06:15:00,
2013-05-22 22:25:00,51.6,29.3,30.07,West,261,0.0,0.0,42,0.00,CLR,,0.00,WeatherDisplay:10.37,2013-05-23 06:25:00,
2013-05-22 22:30:00,51.4,29.1,30.07,West,263,0.0,0.0,42,0.00,CLR,,0.00,WeatherDisplay:10.37,2013-05-23 06:30:00,
2013-05-22 22:40:00,50.9,28.6,30.07,West,265,0.0,0.0,42,0.00,CLR,,0.00,WeatherDisplay:10.37,2013-05-23 06:40:00,
2013-05-22 22:45:00,50.7,29.6,30.07,West,263,0.0,0.0,44,0.00,CLR,,0.00,WeatherDisplay:10.37,2013-05-23 06:45:00,
2013-05-22 22:55:00,50.5,28.8,30.08,West,263,0.0,0.0,43,0.00,CLR,,0.00,WeatherDisplay:10.37,2013-05-23 06:55:00,
2013-05-22 23:00:00,50.4,30.4,30.08,West,263,0.0,0.0,46,0.00,CLR,,0.00,WeatherDisplay:10.37,2013-05-23 07:00:00,
2013-05-22 23:10:00,49.8,29.3,30.08,West,260,0.0,0.0,45,0.00,CLR,,0.00,WeatherDisplay:10.37,2013-05-23 07:10:00,
2013-05-22 23:15:00,49.8,28.8,30.08,West,266,0.0,0.0,44,0.00,CLR,,0.00,WeatherDisplay:10.37,2013-05-23 07:15:00,
2013-05-22 23:25:00,49.6,28.6,30.08,WSW,258,0.0,0.0,44,0.00,CLR,,0.00,WeatherDisplay:10.37,2013-05-23 07:25:00,
2013-05-22 23:30:00,49.4,28.9,30.08,West,259,0.0,0.0,45,0.00,CLR,,0.00,WeatherDisplay:10.37,2013-05-23 07:30:00,
2013-05-22 23:40:00,49.3,29.9,30.08,West,261,0.0,0.0,47,0.00,CLR,,0.00,WeatherDisplay:10.37,2013-05-23 07:40:00,
2013-05-22 23:45:00,49.0,31.7,30.08,WSW,257,0.0,0.0,51,0.00,CLR,,0.00,WeatherDisplay:10.37,2013-05-23 07:45:00,
2013-05-22 23:55:00,48.7,28.9,30.08,West,262,0.0,0.0,46,0.00,CLR,,0.00,WeatherDisplay:10.37,2013-05-23 07:55:00,